createdAt,value
2019-03-05T00:02:16.038Z,10.64
2019-03-05T00:05:07.184Z,10.64
2019-03-05T00:07:58.574Z,10.58
2019-03-05T00:10:48.912Z,10.58
2019-03-05T00:13:39.031Z,10.58
2019-03-05T00:16:29.435Z,10.61
2019-03-05T00:19:19.768Z,10.68
2019-03-05T00:22:11.272Z,10.64
2019-03-05T00:25:13.832Z,10.69
2019-03-05T00:28:17.183Z,10.64
2019-03-05T00:31:25.127Z,10.62
2019-03-05T00:35:06.277Z,10.53
2019-03-05T00:38:05.427Z,10.56
2019-03-05T00:41:26.778Z,10.54
2019-03-05T00:44:34.909Z,10.55
2019-03-05T00:47:55.883Z,10.52
2019-03-05T00:51:07.855Z,10.53
2019-03-05T00:54:22.818Z,10.53
2019-03-05T00:58:05.354Z,10.55
2019-03-05T01:01:25.990Z,10.60
2019-03-05T01:04:56.575Z,10.63
2019-03-05T01:07:46.783Z,10.67
2019-03-05T01:10:37.271Z,10.74
2019-03-05T01:13:27.834Z,10.74
2019-03-05T01:16:20.387Z,10.74
2019-03-05T01:19:10.670Z,10.76
2019-03-05T01:22:02.091Z,10.75
2019-03-05T01:24:52.174Z,10.82
2019-03-05T01:27:42.423Z,10.82
2019-03-05T01:31:08.415Z,10.81
2019-03-05T01:34:23.629Z,10.86
2019-03-05T01:37:13.986Z,10.82
2019-03-05T01:40:32.586Z,10.74
2019-03-05T01:43:22.906Z,10.69
2019-03-05T01:46:13.415Z,10.67
2019-03-05T01:49:04.058Z,10.70
2019-03-05T01:51:54.295Z,10.64
2019-03-05T01:54:44.569Z,10.60
2019-03-05T01:57:34.620Z,10.64
2019-03-05T02:00:25.099Z,10.63
2019-03-05T02:03:15.569Z,10.57
2019-03-05T02:06:05.885Z,10.61
2019-03-05T02:08:56.363Z,10.67
2019-03-05T02:11:46.854Z,10.73
2019-03-05T02:14:37.433Z,10.66
2019-03-05T02:17:27.889Z,10.72
2019-03-05T02:20:25.737Z,10.68
2019-03-05T02:23:37.987Z,10.70
2019-03-05T02:26:51.281Z,10.69
2019-03-05T02:29:54.321Z,10.70
2019-03-05T02:33:33.893Z,10.64
2019-03-05T02:36:54.100Z,10.61
2019-03-05T02:40:22.717Z,10.55
2019-03-05T02:43:40.933Z,10.47
2019-03-05T02:46:47.018Z,10.30
2019-03-05T02:50:04.664Z,10.04
2019-03-05T02:53:48.334Z,9.99
2019-03-05T02:56:59.421Z,10.02
2019-03-05T02:59:50.593Z,10.00
2019-03-05T03:02:58.276Z,10.00
2019-03-05T03:06:07.690Z,9.99
2019-03-05T03:09:39.656Z,10.08
2019-03-05T03:12:31.113Z,10.03
2019-03-05T03:15:21.550Z,10.11
2019-03-05T03:18:12.772Z,10.13
2019-03-05T03:21:03.399Z,10.17
2019-03-05T03:23:53.739Z,10.17
2019-03-05T03:26:44.122Z,10.26
2019-03-05T03:29:37.128Z,10.30
2019-03-05T03:32:27.569Z,10.34
2019-03-05T03:35:17.950Z,10.36
2019-03-05T03:38:09.508Z,10.39
2019-03-05T03:41:00.735Z,10.39
2019-03-05T03:43:51.207Z,10.42
2019-03-05T03:46:41.618Z,10.48
2019-03-05T03:49:31.981Z,10.50
2019-03-05T03:52:22.335Z,10.51
2019-03-05T03:55:13.609Z,10.41
2019-03-05T03:58:04.074Z,10.46
2019-03-05T04:00:54.545Z,10.42
2019-03-05T04:03:45.101Z,10.33
2019-03-05T04:06:35.607Z,10.30
2019-03-05T04:09:26.003Z,10.23
2019-03-05T04:12:16.035Z,10.19
2019-03-05T04:15:07.548Z,10.16
2019-03-05T04:17:57.610Z,10.24
2019-03-05T04:20:51.418Z,10.26
2019-03-05T04:23:42.298Z,10.22
2019-03-05T04:26:32.596Z,10.23
2019-03-05T04:29:22.781Z,10.23
2019-03-05T04:32:13.165Z,10.26
2019-03-05T04:35:03.712Z,10.26
2019-03-05T04:37:54.196Z,10.24
2019-03-05T04:40:44.668Z,10.28
2019-03-05T04:43:35.259Z,10.29
2019-03-05T04:46:40.121Z,10.26
2019-03-05T04:49:44.041Z,10.26
2019-03-05T04:52:36.523Z,10.30
2019-03-05T04:55:29.136Z,10.32
2019-03-05T04:58:20.372Z,10.38
2019-03-05T05:01:10.725Z,10.51
2019-03-05T05:04:01.050Z,10.60
2019-03-05T05:06:52.284Z,10.67
2019-03-05T05:09:42.644Z,10.72
2019-03-05T05:12:34.011Z,10.78
2019-03-05T05:15:32.567Z,10.83
2019-03-05T05:18:22.899Z,10.87
2019-03-05T05:21:13.211Z,11.03
2019-03-05T05:24:03.628Z,11.19
2019-03-05T05:26:53.639Z,11.46
2019-03-05T05:29:43.963Z,11.84
2019-03-05T05:32:35.399Z,12.34
2019-03-05T05:35:25.879Z,12.68
2019-03-05T05:38:16.479Z,12.89
2019-03-05T05:41:07.397Z,13.03
2019-03-05T05:43:58.577Z,13.30
2019-03-05T05:46:48.854Z,13.52
2019-03-05T05:49:39.583Z,13.70
2019-03-05T05:52:30.321Z,13.96
2019-03-05T05:55:20.702Z,14.33
2019-03-05T05:58:11.066Z,14.91
2019-03-05T06:01:03.739Z,15.43
2019-03-05T06:03:54.258Z,16.48
2019-03-05T06:06:46.255Z,17.72
2019-03-05T06:09:36.651Z,18.76
2019-03-05T06:12:26.891Z,19.41
2019-03-05T06:15:17.772Z,20.21
2019-03-05T06:18:08.312Z,21.54
2019-03-05T06:20:58.945Z,21.80
2019-03-05T06:23:49.939Z,22.40
2019-03-05T06:26:40.913Z,22.70
2019-03-05T06:29:31.895Z,23.15
2019-03-05T06:32:22.844Z,23.53
2019-03-05T06:35:13.728Z,24.68
2019-03-05T06:38:04.778Z,24.92
2019-03-05T06:40:55.742Z,25.72
2019-03-05T06:43:46.348Z,26.16
2019-03-05T06:46:37.147Z,27.36
2019-03-05T06:49:27.942Z,28.06
2019-03-05T06:52:18.853Z,28.37
2019-03-05T06:55:10.854Z,28.85
2019-03-05T06:58:01.737Z,29.03
2019-03-05T07:00:52.772Z,29.62
2019-03-05T07:03:43.707Z,30.07
2019-03-05T07:06:52.136Z,27.51
2019-03-05T07:10:14.488Z,26.82
2019-03-05T07:13:20.051Z,24.28
2019-03-05T07:16:38.513Z,23.30
2019-03-05T07:19:57.272Z,24.36
2019-03-05T07:23:13.296Z,21.81
2019-03-05T07:26:04.416Z,23.65
2019-03-05T07:28:55.440Z,22.56
2019-03-05T07:31:46.398Z,24.85
2019-03-05T07:34:38.875Z,25.90
2019-03-05T07:37:29.606Z,27.63
2019-03-05T07:40:20.497Z,27.19
2019-03-05T07:43:11.595Z,26.55
2019-03-05T07:46:02.465Z,25.75
2019-03-05T07:48:53.899Z,24.37
2019-03-05T07:51:44.762Z,26.76
2019-03-05T07:54:35.769Z,27.09
2019-03-05T07:57:26.704Z,25.91
2019-03-05T08:00:19.819Z,24.46
2019-03-05T08:03:10.738Z,25.42
2019-03-05T08:06:01.832Z,26.54
2019-03-05T08:09:42.112Z,27.39
2019-03-05T08:13:25.786Z,25.41
2019-03-05T08:16:20.826Z,24.48
2019-03-05T08:19:11.823Z,26.85
2019-03-05T08:22:02.676Z,23.85
2019-03-05T08:24:53.674Z,22.81
2019-03-05T08:27:45.559Z,23.67
2019-03-05T08:30:36.598Z,22.94
2019-03-05T08:33:27.480Z,22.62
2019-03-05T08:36:18.481Z,23.05
2019-03-05T08:39:08.902Z,22.52
2019-03-05T08:41:59.203Z,19.67
2019-03-05T08:44:50.766Z,19.02
2019-03-05T08:47:41.147Z,19.75
2019-03-05T08:50:32.305Z,19.40
2019-03-05T08:53:22.677Z,19.13
2019-03-05T08:56:13.056Z,18.83
2019-03-05T08:59:03.246Z,18.20
2019-03-05T09:01:54.487Z,18.33
2019-03-05T09:04:44.947Z,18.10
2019-03-05T09:07:35.293Z,17.88
2019-03-05T09:10:26.701Z,18.08
2019-03-05T09:13:16.705Z,18.08
2019-03-05T09:16:06.971Z,18.58
2019-03-05T09:18:57.409Z,18.46
2019-03-05T09:21:49.337Z,18.36
2019-03-05T09:24:39.821Z,18.29
2019-03-05T09:27:30.482Z,18.12
2019-03-05T09:30:20.820Z,18.37
2019-03-05T09:33:14.019Z,18.03
2019-03-05T09:36:04.074Z,18.14
2019-03-05T09:38:54.323Z,17.82
2019-03-05T09:41:44.841Z,17.15
2019-03-05T09:44:35.274Z,16.93
2019-03-05T09:47:25.489Z,16.79
2019-03-05T09:50:17.078Z,16.87
2019-03-05T09:53:07.195Z,17.06
2019-03-05T09:55:57.657Z,17.05
2019-03-05T09:58:47.971Z,16.74
2019-03-05T10:01:38.136Z,16.99
2019-03-05T10:04:28.386Z,16.72
2019-03-05T10:07:19.462Z,17.12
2019-03-05T10:10:11.871Z,17.39
2019-03-05T10:13:04.299Z,17.34
2019-03-05T10:15:54.697Z,17.47
2019-03-05T10:18:45.145Z,17.57
2019-03-05T10:21:45.907Z,17.73
2019-03-05T10:24:28.616Z,17.46
2019-03-05T10:27:19.212Z,17.72
2019-03-05T10:30:24.424Z,17.77
2019-03-05T10:33:09.835Z,18.05
2019-03-05T10:35:59.982Z,18.27
2019-03-05T10:38:57.426Z,18.37
2019-03-05T10:41:43.013Z,18.51
2019-03-05T10:44:35.179Z,18.58
2019-03-05T10:47:25.554Z,18.73
2019-03-05T10:50:18.387Z,18.84
2019-03-05T10:53:08.560Z,18.84
2019-03-05T10:55:58.991Z,18.85
2019-03-05T10:58:49.847Z,19.07
2019-03-05T11:01:40.297Z,19.07
2019-03-05T11:04:30.624Z,18.66
2019-03-05T11:07:21.053Z,18.65
2019-03-05T11:10:11.825Z,18.23
2019-03-05T11:13:02.350Z,18.38
2019-03-05T11:15:54.783Z,18.41
2019-03-05T11:18:45.119Z,18.49
2019-03-05T11:21:35.621Z,18.35
2019-03-05T11:24:25.905Z,18.23
2019-03-05T11:27:16.343Z,18.18
2019-03-05T11:30:07.773Z,18.10
2019-03-05T11:32:58.176Z,18.04
2019-03-05T11:35:49.696Z,17.84
2019-03-05T11:38:40.348Z,18.12
2019-03-05T11:41:30.755Z,18.12
2019-03-05T11:44:21.176Z,18.23
2019-03-05T11:47:11.169Z,18.22
2019-03-05T11:50:01.494Z,17.90
2019-03-05T11:52:51.894Z,17.86
2019-03-05T11:55:42.503Z,17.74
2019-03-05T11:58:32.897Z,17.84
2019-03-05T12:01:33.803Z,17.44
2019-03-05T12:04:23.852Z,17.51
2019-03-05T12:07:14.185Z,17.49
2019-03-05T12:10:04.617Z,17.54
2019-03-05T12:12:55.095Z,17.29
2019-03-05T12:15:46.404Z,17.45
2019-03-05T12:18:36.888Z,17.47
2019-03-05T12:21:27.289Z,17.31
2019-03-05T12:24:20.058Z,17.25
2019-03-05T12:27:09.824Z,17.35
2019-03-05T12:30:00.439Z,17.34
2019-03-05T12:32:51.006Z,17.41
2019-03-05T12:35:41.490Z,17.61
2019-03-05T12:38:31.803Z,17.70
2019-03-05T12:41:22.109Z,17.83
2019-03-05T12:44:12.324Z,17.76
2019-03-05T12:47:02.626Z,17.58
2019-03-05T12:49:53.406Z,17.78
2019-03-05T12:52:43.950Z,17.52
2019-03-05T12:55:34.368Z,17.33
2019-03-05T12:58:24.844Z,17.34
2019-03-05T13:01:15.253Z,17.31
2019-03-05T13:04:06.339Z,17.33
2019-03-05T13:06:56.882Z,17.38
2019-03-05T13:09:47.637Z,17.24
2019-03-05T13:12:40.059Z,17.17
2019-03-05T13:15:30.458Z,17.30
2019-03-05T13:18:20.619Z,17.47
2019-03-05T13:21:11.157Z,17.20
2019-03-05T13:24:01.449Z,17.39
2019-03-05T13:26:51.799Z,17.42
2019-03-05T13:29:42.120Z,17.30
2019-03-05T13:32:32.591Z,17.06
2019-03-05T13:35:25.335Z,16.98
2019-03-05T13:38:15.560Z,16.92
2019-03-05T13:41:05.905Z,16.76
2019-03-05T13:43:56.652Z,16.77
2019-03-05T13:46:47.135Z,16.89
2019-03-05T13:50:13.203Z,16.87
2019-03-05T13:53:25.460Z,16.82
2019-03-05T13:56:59.377Z,16.89
2019-03-05T13:59:50.101Z,16.91
2019-03-05T14:03:07.987Z,16.93
2019-03-05T14:06:51.527Z,16.85
2019-03-05T14:09:40.161Z,16.84
2019-03-05T14:12:30.171Z,16.77
2019-03-05T14:15:21.197Z,16.73
2019-03-05T14:18:12.801Z,16.62
2019-03-05T14:21:03.182Z,16.56
2019-03-05T14:23:53.188Z,16.54
2019-03-05T14:26:43.704Z,16.50
2019-03-05T14:29:34.133Z,16.48
2019-03-05T14:32:24.634Z,16.53
2019-03-05T14:35:20.207Z,16.34
2019-03-05T14:38:10.423Z,16.27
2019-03-05T14:41:00.588Z,16.23
2019-03-05T14:43:50.868Z,16.27
2019-03-05T14:46:41.292Z,16.33
2019-03-05T14:49:31.734Z,16.26
2019-03-05T14:52:21.992Z,16.14
2019-03-05T14:55:12.230Z,16.01
2019-03-05T14:58:02.305Z,15.89
2019-03-05T15:00:52.983Z,15.83
2019-03-05T15:03:43.308Z,15.78
2019-03-05T15:06:33.528Z,15.71
2019-03-05T15:09:23.673Z,15.72
2019-03-05T15:12:14.143Z,15.63
2019-03-05T15:15:04.724Z,15.60
2019-03-05T15:17:55.404Z,15.74
2019-03-05T15:20:45.723Z,15.65
2019-03-05T15:23:36.078Z,15.66
2019-03-05T15:26:26.393Z,15.52
2019-03-05T15:29:16.705Z,15.48
2019-03-05T15:32:07.090Z,15.39
2019-03-05T15:34:58.364Z,15.24
2019-03-05T15:37:49.018Z,15.14
2019-03-05T15:40:40.190Z,15.06
2019-03-05T15:43:30.351Z,14.94
2019-03-05T15:46:20.700Z,14.78
2019-03-05T15:49:11.222Z,14.70
2019-03-05T15:52:01.567Z,14.43
2019-03-05T15:54:51.924Z,14.38
2019-03-05T15:57:42.310Z,14.24
2019-03-05T16:00:32.633Z,14.16
2019-03-05T16:03:23.047Z,14.14
2019-03-05T16:06:14.044Z,14.05
2019-03-05T16:09:05.827Z,13.96
2019-03-05T16:11:56.976Z,13.96
2019-03-05T16:14:47.618Z,13.92
2019-03-05T16:17:38.010Z,13.84
2019-03-05T16:20:29.773Z,13.84
2019-03-05T16:23:20.256Z,13.80
2019-03-05T16:26:10.788Z,13.79
2019-03-05T16:29:01.397Z,13.80
2019-03-05T16:32:09.154Z,13.72
2019-03-05T16:35:26.727Z,13.68
2019-03-05T16:38:46.046Z,13.65
2019-03-05T16:41:57.452Z,13.71
2019-03-05T16:45:07.251Z,13.81
2019-03-05T16:48:12.996Z,13.82
2019-03-05T16:51:26.616Z,13.64
2019-03-05T16:54:36.221Z,13.66
2019-03-05T16:57:44.258Z,13.59
2019-03-05T17:00:59.785Z,13.54
2019-03-05T17:04:06.442Z,13.68
2019-03-05T17:07:10.393Z,13.79
2019-03-05T17:10:19.594Z,13.80
2019-03-05T17:13:09.782Z,13.83
2019-03-05T17:16:00.331Z,13.92
2019-03-05T17:18:50.705Z,13.97
2019-03-05T17:21:41.260Z,14.02
2019-03-05T17:24:31.519Z,14.02
2019-03-05T17:27:22.511Z,13.97
2019-03-05T17:30:16.500Z,13.90
2019-03-05T17:33:07.044Z,13.90
2019-03-05T17:35:57.412Z,13.91
2019-03-05T17:38:49.284Z,13.81
2019-03-05T17:41:39.631Z,13.88
2019-03-05T17:44:30.247Z,13.94
2019-03-05T17:47:20.651Z,13.93
2019-03-05T17:50:11.773Z,13.87
2019-03-05T17:53:02.129Z,13.92
2019-03-05T17:55:52.629Z,13.96
2019-03-05T17:58:43.004Z,13.96
2019-03-05T18:01:33.541Z,13.92
2019-03-05T18:04:24.783Z,13.92
2019-03-05T18:07:15.151Z,13.91
2019-03-05T18:10:05.849Z,13.88
2019-03-05T18:12:56.443Z,13.87
2019-03-05T18:15:46.683Z,13.87
2019-03-05T18:18:37.454Z,13.86
2019-03-05T18:21:27.743Z,13.90
2019-03-05T18:24:18.031Z,13.87
2019-03-05T18:27:08.895Z,13.86
2019-03-05T18:29:59.131Z,13.85
2019-03-05T18:32:49.602Z,13.81
2019-03-05T18:35:39.963Z,13.85
2019-03-05T18:38:30.311Z,13.83
2019-03-05T18:41:20.642Z,13.79
2019-03-05T18:44:11.053Z,13.74
2019-03-05T18:47:01.744Z,13.72
2019-03-05T18:49:52.145Z,13.66
2019-03-05T18:52:42.817Z,13.69
2019-03-05T18:55:33.086Z,13.63
2019-03-05T18:58:23.477Z,13.69
2019-03-05T19:01:14.000Z,13.60
2019-03-05T19:04:04.393Z,13.63
2019-03-05T19:06:54.553Z,13.62
2019-03-05T19:09:44.874Z,13.65
2019-03-05T19:12:34.995Z,13.69
2019-03-05T19:15:25.662Z,13.70
2019-03-05T19:18:16.114Z,13.66
2019-03-05T19:21:06.396Z,13.60
2019-03-05T19:23:56.454Z,13.59
2019-03-05T19:26:47.045Z,13.60
2019-03-05T19:29:37.579Z,13.47
2019-03-05T19:32:28.926Z,13.46
2019-03-05T19:35:19.158Z,13.44
2019-03-05T19:38:09.236Z,13.44
2019-03-05T19:40:59.473Z,13.39
2019-03-05T19:43:50.076Z,13.39
2019-03-05T19:46:40.378Z,13.39
2019-03-05T19:49:31.067Z,13.38
2019-03-05T19:52:21.445Z,13.35
2019-03-05T19:55:12.865Z,13.31
2019-03-05T19:58:09.405Z,13.31
2019-03-05T20:01:17.952Z,13.17
2019-03-05T20:04:11.765Z,13.15
2019-03-05T20:06:59.904Z,13.13
2019-03-05T20:09:50.335Z,13.19
2019-03-05T20:12:40.731Z,13.16
2019-03-05T20:15:30.991Z,13.12
2019-03-05T20:18:22.236Z,13.02
2019-03-05T20:21:12.397Z,13.03
2019-03-05T20:24:05.499Z,13.02
2019-03-05T20:26:55.713Z,12.99
2019-03-05T20:29:45.996Z,12.91
2019-03-05T20:32:37.199Z,12.94
2019-03-05T20:35:27.641Z,12.91
2019-03-05T20:38:17.968Z,12.94
2019-03-05T20:41:09.232Z,12.95
2019-03-05T20:43:59.586Z,12.96
2019-03-05T20:46:49.839Z,13.00
2019-03-05T20:49:41.368Z,12.98
2019-03-05T20:52:32.233Z,12.94
2019-03-05T20:55:22.804Z,12.81
2019-03-05T20:58:12.954Z,12.84
2019-03-05T21:01:04.413Z,12.88
2019-03-05T21:03:54.637Z,12.82
2019-03-05T21:06:44.974Z,12.76
2019-03-05T21:09:35.649Z,12.72
2019-03-05T21:12:25.819Z,12.68
2019-03-05T21:15:16.318Z,12.77
2019-03-05T21:18:06.732Z,12.71
2019-03-05T21:20:57.269Z,12.76
2019-03-05T21:23:47.799Z,12.71
2019-03-05T21:26:38.113Z,12.67
2019-03-05T21:29:28.425Z,12.59
2019-03-05T21:32:18.802Z,12.50
2019-03-05T21:35:09.940Z,12.52
2019-03-05T21:38:00.419Z,12.56
2019-03-05T21:40:50.838Z,12.44
2019-03-05T21:43:41.350Z,12.40
2019-03-05T21:46:31.649Z,12.43
2019-03-05T21:49:22.068Z,12.46
2019-03-05T21:52:12.430Z,12.42
2019-03-05T21:55:02.981Z,12.45
2019-03-05T21:57:53.511Z,12.47
2019-03-05T22:00:43.691Z,12.40
2019-03-05T22:03:33.815Z,12.43
2019-03-05T22:06:24.506Z,12.40
2019-03-05T22:09:14.858Z,12.37
2019-03-05T22:12:05.323Z,12.46
2019-03-05T22:14:55.429Z,12.45
2019-03-05T22:17:45.852Z,12.46
2019-03-05T22:20:36.282Z,12.41
2019-03-05T22:23:26.874Z,12.39
2019-03-05T22:26:17.409Z,12.32
2019-03-05T22:29:07.734Z,12.32
2019-03-05T22:31:58.031Z,12.38
2019-03-05T22:34:48.375Z,12.38
2019-03-05T22:37:38.715Z,12.36
2019-03-05T22:40:29.219Z,12.28
2019-03-05T22:43:19.341Z,12.24
2019-03-05T22:46:10.384Z,12.21
2019-03-05T22:49:00.503Z,12.25
2019-03-05T22:51:51.237Z,12.25
2019-03-05T22:54:41.667Z,12.27
2019-03-05T22:57:32.034Z,12.32
2019-03-05T23:01:00.939Z,12.33
2019-03-05T23:04:00.337Z,12.38
2019-03-05T23:06:50.422Z,12.34
2019-03-05T23:09:40.930Z,12.41
2019-03-05T23:12:31.249Z,12.33
2019-03-05T23:15:21.614Z,12.40
2019-03-05T23:18:12.025Z,12.43
2019-03-05T23:21:02.622Z,12.40
2019-03-05T23:23:52.946Z,12.47
2019-03-05T23:26:45.395Z,12.54
2019-03-05T23:29:43.554Z,12.50
2019-03-05T23:32:33.899Z,12.45
2019-03-05T23:35:24.180Z,12.40
2019-03-05T23:38:14.570Z,12.45
2019-03-05T23:41:04.692Z,12.45
2019-03-05T23:43:55.179Z,12.39
2019-03-05T23:46:45.812Z,12.30
2019-03-05T23:49:36.033Z,12.33
2019-03-05T23:52:26.628Z,12.35
2019-03-05T23:55:17.285Z,12.33
2019-03-05T23:58:07.575Z,12.41
